sensor_id;sensor_type;location;lat;lon;timestamp;P1;durP1;ratioP1;P2;durP2;ratioP2
68858;SDS011;55864;49.238;8.092;2022-07-22T00:01:10;11.63;;;8.02;;
68858;SDS011;55864;49.238;8.092;2022-07-22T00:03:12;14.23;;;8.57;;
68858;SDS011;55864;49.238;8.092;2022-07-22T00:05:12;12.30;;;7.85;;
68858;SDS011;55864;49.238;8.092;2022-07-22T00:07:13;13.65;;;8.35;;
68858;SDS011;55864;49.238;8.092;2022-07-22T00:09:14;13.07;;;7.95;;
68858;SDS011;55864;49.238;8.092;2022-07-22T00:11:14;12.43;;;8.23;;
68858;SDS011;55864;49.238;8.092;2022-07-22T00:13:15;12.00;;;8.25;;
68858;SDS011;55864;49.238;8.092;2022-07-22T00:15:15;12.57;;;7.55;;
68858;SDS011;55864;49.238;8.092;2022-07-22T00:17:16;11.68;;;8.05;;
68858;SDS011;55864;49.238;8.092;2022-07-22T00:19:18;13.45;;;8.20;;
68858;SDS011;55864;49.238;8.092;2022-07-22T00:21:18;11.90;;;8.05;;
68858;SDS011;55864;49.238;8.092;2022-07-22T00:23:19;15.13;;;8.30;;
68858;SDS011;55864;49.238;8.092;2022-07-22T00:25:20;11.98;;;7.85;;
68858;SDS011;55864;49.238;8.092;2022-07-22T00:27:20;12.20;;;8.15;;
68858;SDS011;55864;49.238;8.092;2022-07-22T00:29:21;11.50;;;8.13;;
68858;SDS011;55864;49.238;8.092;2022-07-22T00:31:22;11.63;;;8.05;;
68858;SDS011;55864;49.238;8.092;2022-07-22T00:33:22;13.48;;;7.93;;
68858;SDS011;55864;49.238;8.092;2022-07-22T00:35:25;13.18;;;7.90;;
68858;SDS011;55864;49.238;8.092;2022-07-22T00:37:26;14.20;;;8.20;;
68858;SDS011;55864;49.238;8.092;2022-07-22T00:39:26;12.95;;;8.15;;
68858;SDS011;55864;49.238;8.092;2022-07-22T00:41:27;12.93;;;8.82;;
68858;SDS011;55864;49.238;8.092;2022-07-22T00:43:28;11.98;;;8.00;;
68858;SDS011;55864;49.238;8.092;2022-07-22T00:45:48;13.82;;;8.30;;
68858;SDS011;55864;49.238;8.092;2022-07-22T00:47:49;15.75;;;8.32;;
68858;SDS011;55864;49.238;8.092;2022-07-22T00:49:49;13.05;;;8.15;;
68858;SDS011;55864;49.238;8.092;2022-07-22T00:51:51;13.18;;;8.10;;
68858;SDS011;55864;49.238;8.092;2022-07-22T00:53:53;11.70;;;8.05;;
68858;SDS011;55864;49.238;8.092;2022-07-22T00:55:54;13.13;;;8.10;;
68858;SDS011;55864;49.238;8.092;2022-07-22T00:57:57;12.52;;;8.73;;
68858;SDS011;55864;49.238;8.092;2022-07-22T00:59:58;13.82;;;8.23;;
68858;SDS011;55864;49.238;8.092;2022-07-22T01:01:59;12.98;;;7.85;;
68858;SDS011;55864;49.238;8.092;2022-07-22T01:04:01;12.43;;;8.32;;
68858;SDS011;55864;49.238;8.092;2022-07-22T01:06:02;14.25;;;8.23;;
68858;SDS011;55864;49.238;8.092;2022-07-22T01:08:06;12.20;;;8.23;;
68858;SDS011;55864;49.238;8.092;2022-07-22T01:10:07;13.43;;;8.60;;
68858;SDS011;55864;49.238;8.092;2022-07-22T01:12:08;13.98;;;8.82;;
68858;SDS011;55864;49.238;8.092;2022-07-22T01:14:08;15.00;;;8.30;;
68858;SDS011;55864;49.238;8.092;2022-07-22T01:16:09;13.02;;;8.13;;
68858;SDS011;55864;49.238;8.092;2022-07-22T01:18:12;11.75;;;8.07;;
68858;SDS011;55864;49.238;8.092;2022-07-22T01:20:14;15.20;;;8.70;;
68858;SDS011;55864;49.238;8.092;2022-07-22T01:22:14;12.23;;;8.18;;
68858;SDS011;55864;49.238;8.092;2022-07-22T01:24:15;13.00;;;8.85;;
68858;SDS011;55864;49.238;8.092;2022-07-22T01:26:16;10.93;;;7.95;;
68858;SDS011;55864;49.238;8.092;2022-07-22T01:28:17;12.15;;;8.27;;
68858;SDS011;55864;49.238;8.092;2022-07-22T01:30:17;15.40;;;9.40;;
68858;SDS011;55864;49.238;8.092;2022-07-22T01:32:18;12.73;;;8.35;;
68858;SDS011;55864;49.238;8.092;2022-07-22T01:34:18;14.43;;;9.07;;
68858;SDS011;55864;49.238;8.092;2022-07-22T01:36:20;14.57;;;8.43;;
68858;SDS011;55864;49.238;8.092;2022-07-22T01:38:21;13.23;;;8.50;;
68858;SDS011;55864;49.238;8.092;2022-07-22T01:40:22;12.70;;;8.93;;
68858;SDS011;55864;49.238;8.092;2022-07-22T01:42:22;14.13;;;8.40;;
68858;SDS011;55864;49.238;8.092;2022-07-22T01:44:23;12.75;;;8.82;;
68858;SDS011;55864;49.238;8.092;2022-07-22T01:46:27;13.45;;;9.27;;
68858;SDS011;55864;49.238;8.092;2022-07-22T01:48:31;13.73;;;8.98;;
68858;SDS011;55864;49.238;8.092;2022-07-22T01:50:41;12.70;;;8.38;;
68858;SDS011;55864;49.238;8.092;2022-07-22T01:52:46;14.75;;;9.15;;
68858;SDS011;55864;49.238;8.092;2022-07-22T01:54:48;12.05;;;8.82;;
68858;SDS011;55864;49.238;8.092;2022-07-22T01:56:51;13.25;;;8.90;;
68858;SDS011;55864;49.238;8.092;2022-07-22T02:00:59;12.40;;;8.13;;
68858;SDS011;55864;49.238;8.092;2022-07-22T02:03:01;12.43;;;8.52;;
68858;SDS011;55864;49.238;8.092;2022-07-22T02:05:04;15.53;;;8.63;;
68858;SDS011;55864;49.238;8.092;2022-07-22T02:07:06;14.80;;;8.85;;
68858;SDS011;55864;49.238;8.092;2022-07-22T02:09:13;13.77;;;9.33;;
68858;SDS011;55864;49.238;8.092;2022-07-22T02:11:17;14.45;;;8.63;;
68858;SDS011;55864;49.238;8.092;2022-07-22T02:13:30;13.02;;;8.68;;
68858;SDS011;55864;49.238;8.092;2022-07-22T02:15:36;13.80;;;8.27;;
68858;SDS011;55864;49.238;8.092;2022-07-22T02:17:37;13.05;;;8.63;;
68858;SDS011;55864;49.238;8.092;2022-07-22T02:19:43;12.70;;;8.35;;
68858;SDS011;55864;49.238;8.092;2022-07-22T02:21:47;14.50;;;8.70;;
68858;SDS011;55864;49.238;8.092;2022-07-22T02:23:49;12.55;;;8.52;;
68858;SDS011;55864;49.238;8.092;2022-07-22T02:25:53;12.85;;;8.43;;
68858;SDS011;55864;49.238;8.092;2022-07-22T02:27:55;13.82;;;8.88;;
68858;SDS011;55864;49.238;8.092;2022-07-22T02:29:57;11.98;;;8.30;;
68858;SDS011;55864;49.238;8.092;2022-07-22T02:32:01;12.65;;;8.68;;
68858;SDS011;55864;49.238;8.092;2022-07-22T02:34:14;12.80;;;8.07;;
68858;SDS011;55864;49.238;8.092;2022-07-22T02:36:16;14.18;;;8.57;;
68858;SDS011;55864;49.238;8.092;2022-07-22T02:40:56;12.35;;;8.48;;
68858;SDS011;55864;49.238;8.092;2022-07-22T02:43:15;12.73;;;8.55;;
68858;SDS011;55864;49.238;8.092;2022-07-22T02:45:21;14.73;;;8.77;;
68858;SDS011;55864;49.238;8.092;2022-07-22T02:47:25;11.73;;;8.05;;
68858;SDS011;55864;49.238;8.092;2022-07-22T02:49:27;12.23;;;8.32;;
68858;SDS011;55864;49.238;8.092;2022-07-22T02:51:30;14.80;;;8.60;;
68858;SDS011;55864;49.238;8.092;2022-07-22T02:53:32;15.02;;;8.27;;
68858;SDS011;55864;49.238;8.092;2022-07-22T02:55:35;11.38;;;7.47;;
68858;SDS011;55864;49.238;8.092;2022-07-22T02:57:40;13.90;;;7.88;;
68858;SDS011;55864;49.238;8.092;2022-07-22T02:59:55;11.73;;;7.65;;
68858;SDS011;55864;49.238;8.092;2022-07-22T03:01:57;13.07;;;7.57;;
68858;SDS011;55864;49.238;8.092;2022-07-22T03:04:00;10.30;;;7.22;;
68858;SDS011;55864;49.238;8.092;2022-07-22T03:06:05;11.60;;;7.60;;
68858;SDS011;55864;49.238;8.092;2022-07-22T03:08:12;10.38;;;7.45;;
68858;SDS011;55864;49.238;8.092;2022-07-22T03:10:16;11.95;;;7.55;;
68858;SDS011;55864;49.238;8.092;2022-07-22T03:12:19;13.35;;;7.95;;
68858;SDS011;55864;49.238;8.092;2022-07-22T03:14:22;12.95;;;7.75;;
68858;SDS011;55864;49.238;8.092;2022-07-22T03:16:24;12.38;;;7.60;;
68858;SDS011;55864;49.238;8.092;2022-07-22T03:18:25;12.55;;;7.55;;
68858;SDS011;55864;49.238;8.092;2022-07-22T03:20:25;12.18;;;7.65;;
68858;SDS011;55864;49.238;8.092;2022-07-22T03:22:26;13.35;;;7.38;;
68858;SDS011;55864;49.238;8.092;2022-07-22T03:24:28;12.65;;;7.82;;
68858;SDS011;55864;49.238;8.092;2022-07-22T03:26:28;12.38;;;7.97;;
68858;SDS011;55864;49.238;8.092;2022-07-22T03:28:29;13.07;;;7.60;;
68858;SDS011;55864;49.238;8.092;2022-07-22T03:30:31;12.32;;;7.93;;
68858;SDS011;55864;49.238;8.092;2022-07-22T03:32:32;13.75;;;7.47;;
68858;SDS011;55864;49.238;8.092;2022-07-22T03:34:33;13.05;;;8.63;;
68858;SDS011;55864;49.238;8.092;2022-07-22T03:36:39;12.77;;;7.28;;
68858;SDS011;55864;49.238;8.092;2022-07-22T03:38:39;13.25;;;7.85;;
68858;SDS011;55864;49.238;8.092;2022-07-22T03:40:41;13.77;;;8.30;;
68858;SDS011;55864;49.238;8.092;2022-07-22T03:42:42;12.88;;;7.35;;
68858;SDS011;55864;49.238;8.092;2022-07-22T03:44:43;12.00;;;7.43;;
68858;SDS011;55864;49.238;8.092;2022-07-22T03:46:45;13.43;;;7.72;;
68858;SDS011;55864;49.238;8.092;2022-07-22T03:48:48;12.90;;;7.35;;
68858;SDS011;55864;49.238;8.092;2022-07-22T03:50:49;11.55;;;7.28;;
68858;SDS011;55864;49.238;8.092;2022-07-22T03:52:50;12.23;;;7.90;;
68858;SDS011;55864;49.238;8.092;2022-07-22T03:54:50;12.50;;;7.63;;
68858;SDS011;55864;49.238;8.092;2022-07-22T03:56:51;11.65;;;7.47;;
68858;SDS011;55864;49.238;8.092;2022-07-22T03:58:51;12.88;;;7.32;;
68858;SDS011;55864;49.238;8.092;2022-07-22T04:00:53;14.13;;;7.88;;
68858;SDS011;55864;49.238;8.092;2022-07-22T04:02:55;11.45;;;7.88;;
68858;SDS011;55864;49.238;8.092;2022-07-22T04:05:16;11.68;;;7.28;;
68858;SDS011;55864;49.238;8.092;2022-07-22T04:07:17;12.63;;;7.28;;
68858;SDS011;55864;49.238;8.092;2022-07-22T04:09:18;12.05;;;7.20;;
68858;SDS011;55864;49.238;8.092;2022-07-22T04:11:19;12.45;;;7.18;;
68858;SDS011;55864;49.238;8.092;2022-07-22T04:13:19;13.38;;;7.47;;
68858;SDS011;55864;49.238;8.092;2022-07-22T04:15:27;11.15;;;6.78;;
68858;SDS011;55864;49.238;8.092;2022-07-22T04:17:28;12.25;;;6.90;;
68858;SDS011;55864;49.238;8.092;2022-07-22T04:19:30;13.15;;;7.22;;
68858;SDS011;55864;49.238;8.092;2022-07-22T04:21:33;13.50;;;7.38;;
68858;SDS011;55864;49.238;8.092;2022-07-22T04:23:38;16.63;;;7.30;;
68858;SDS011;55864;49.238;8.092;2022-07-22T04:25:59;11.85;;;6.97;;
68858;SDS011;55864;49.238;8.092;2022-07-22T04:28:00;13.18;;;6.93;;
68858;SDS011;55864;49.238;8.092;2022-07-22T04:30:00;13.77;;;7.00;;
68858;SDS011;55864;49.238;8.092;2022-07-22T04:32:01;12.73;;;7.00;;
68858;SDS011;55864;49.238;8.092;2022-07-22T04:34:01;14.50;;;8.07;;
68858;SDS011;55864;49.238;8.092;2022-07-22T04:36:04;13.02;;;7.13;;
68858;SDS011;55864;49.238;8.092;2022-07-22T04:38:05;13.05;;;7.05;;
68858;SDS011;55864;49.238;8.092;2022-07-22T04:40:07;12.30;;;7.30;;
68858;SDS011;55864;49.238;8.092;2022-07-22T04:42:08;12.88;;;6.95;;
68858;SDS011;55864;49.238;8.092;2022-07-22T04:44:09;13.30;;;7.45;;
68858;SDS011;55864;49.238;8.092;2022-07-22T04:46:10;12.32;;;7.00;;
68858;SDS011;55864;49.238;8.092;2022-07-22T04:48:15;12.68;;;7.20;;
68858;SDS011;55864;49.238;8.092;2022-07-22T04:50:15;11.35;;;6.90;;
68858;SDS011;55864;49.238;8.092;2022-07-22T04:52:17;13.73;;;7.82;;
68858;SDS011;55864;49.238;8.092;2022-07-22T04:54:21;13.43;;;7.60;;
68858;SDS011;55864;49.238;8.092;2022-07-22T04:56:26;12.35;;;6.97;;
68858;SDS011;55864;49.238;8.092;2022-07-22T04:58:26;13.45;;;7.07;;
68858;SDS011;55864;49.238;8.092;2022-07-22T05:00:27;13.55;;;6.88;;
68858;SDS011;55864;49.238;8.092;2022-07-22T05:02:29;11.77;;;7.35;;
68858;SDS011;55864;49.238;8.092;2022-07-22T05:04:30;12.35;;;7.78;;
68858;SDS011;55864;49.238;8.092;2022-07-22T05:06:31;14.25;;;7.05;;
68858;SDS011;55864;49.238;8.092;2022-07-22T05:08:33;13.07;;;7.22;;
68858;SDS011;55864;49.238;8.092;2022-07-22T05:10:34;13.43;;;7.32;;
68858;SDS011;55864;49.238;8.092;2022-07-22T05:12:34;12.80;;;7.20;;
68858;SDS011;55864;49.238;8.092;2022-07-22T05:14:35;11.88;;;7.22;;
68858;SDS011;55864;49.238;8.092;2022-07-22T05:16:36;14.57;;;7.88;;
68858;SDS011;55864;49.238;8.092;2022-07-22T05:18:37;15.85;;;8.23;;
68858;SDS011;55864;49.238;8.092;2022-07-22T05:20:39;12.77;;;7.78;;
68858;SDS011;55864;49.238;8.092;2022-07-22T05:22:40;12.95;;;7.93;;
68858;SDS011;55864;49.238;8.092;2022-07-22T05:24:48;14.35;;;7.88;;
68858;SDS011;55864;49.238;8.092;2022-07-22T05:26:49;13.15;;;7.70;;
68858;SDS011;55864;49.238;8.092;2022-07-22T05:28:50;13.82;;;8.40;;
68858;SDS011;55864;49.238;8.092;2022-07-22T05:30:51;13.27;;;7.65;;
68858;SDS011;55864;49.238;8.092;2022-07-22T05:32:52;14.60;;;7.38;;
68858;SDS011;55864;49.238;8.092;2022-07-22T05:35:03;12.85;;;7.15;;
68858;SDS011;55864;49.238;8.092;2022-07-22T05:37:04;14.13;;;7.03;;
68858;SDS011;55864;49.238;8.092;2022-07-22T05:39:05;13.60;;;7.47;;
68858;SDS011;55864;49.238;8.092;2022-07-22T05:41:07;12.45;;;7.13;;
68858;SDS011;55864;49.238;8.092;2022-07-22T05:43:08;13.43;;;7.80;;
68858;SDS011;55864;49.238;8.092;2022-07-22T05:45:09;14.63;;;7.35;;
68858;SDS011;55864;49.238;8.092;2022-07-22T05:47:11;15.00;;;7.87;;
68858;SDS011;55864;49.238;8.092;2022-07-22T05:49:11;16.10;;;7.88;;
68858;SDS011;55864;49.238;8.092;2022-07-22T05:51:25;12.88;;;7.40;;
68858;SDS011;55864;49.238;8.092;2022-07-22T05:53:25;12.38;;;7.20;;
68858;SDS011;55864;49.238;8.092;2022-07-22T05:55:27;14.82;;;7.80;;
68858;SDS011;55864;49.238;8.092;2022-07-22T05:57:29;13.20;;;7.57;;
68858;SDS011;55864;49.238;8.092;2022-07-22T05:59:29;12.20;;;6.75;;
68858;SDS011;55864;49.238;8.092;2022-07-22T06:01:30;11.98;;;6.80;;
68858;SDS011;55864;49.238;8.092;2022-07-22T06:03:35;11.07;;;6.95;;
68858;SDS011;55864;49.238;8.092;2022-07-22T06:05:35;12.63;;;6.78;;
68858;SDS011;55864;49.238;8.092;2022-07-22T06:07:36;15.55;;;7.90;;
68858;SDS011;55864;49.238;8.092;2022-07-22T06:09:37;12.13;;;7.28;;
68858;SDS011;55864;49.238;8.092;2022-07-22T06:11:38;14.48;;;7.30;;
68858;SDS011;55864;49.238;8.092;2022-07-22T06:13:40;14.68;;;7.30;;
68858;SDS011;55864;49.238;8.092;2022-07-22T06:15:40;13.73;;;7.40;;
68858;SDS011;55864;49.238;8.092;2022-07-22T06:17:41;12.68;;;6.80;;
68858;SDS011;55864;49.238;8.092;2022-07-22T06:19:43;16.17;;;7.10;;
68858;SDS011;55864;49.238;8.092;2022-07-22T06:21:43;13.57;;;7.43;;
68858;SDS011;55864;49.238;8.092;2022-07-22T06:23:46;11.98;;;6.97;;
68858;SDS011;55864;49.238;8.092;2022-07-22T06:25:47;15.07;;;7.32;;
68858;SDS011;55864;49.238;8.092;2022-07-22T06:28:08;12.60;;;7.53;;
68858;SDS011;55864;49.238;8.092;2022-07-22T06:30:10;12.18;;;7.20;;
68858;SDS011;55864;49.238;8.092;2022-07-22T06:34:12;12.55;;;7.03;;
68858;SDS011;55864;49.238;8.092;2022-07-22T06:36:27;12.98;;;7.07;;
68858;SDS011;55864;49.238;8.092;2022-07-22T06:38:28;12.52;;;7.45;;
68858;SDS011;55864;49.238;8.092;2022-07-22T06:40:51;13.65;;;6.55;;
68858;SDS011;55864;49.238;8.092;2022-07-22T06:43:10;15.63;;;7.63;;
68858;SDS011;55864;49.238;8.092;2022-07-22T06:45:35;12.80;;;6.68;;
68858;SDS011;55864;49.238;8.092;2022-07-22T06:47:45;13.68;;;7.20;;
68858;SDS011;55864;49.238;8.092;2022-07-22T06:49:48;13.52;;;6.20;;
68858;SDS011;55864;49.238;8.092;2022-07-22T06:51:49;11.73;;;6.57;;
68858;SDS011;55864;49.238;8.092;2022-07-22T06:53:50;13.68;;;7.13;;
68858;SDS011;55864;49.238;8.092;2022-07-22T06:55:51;11.98;;;7.40;;
68858;SDS011;55864;49.238;8.092;2022-07-22T06:57:52;12.07;;;6.60;;
68858;SDS011;55864;49.238;8.092;2022-07-22T06:59:52;12.68;;;7.13;;
68858;SDS011;55864;49.238;8.092;2022-07-22T07:01:55;13.32;;;7.18;;
68858;SDS011;55864;49.238;8.092;2022-07-22T07:03:56;12.48;;;7.30;;
68858;SDS011;55864;49.238;8.092;2022-07-22T07:05:57;14.52;;;7.85;;
68858;SDS011;55864;49.238;8.092;2022-07-22T07:07:59;14.05;;;7.20;;
68858;SDS011;55864;49.238;8.092;2022-07-22T07:10:00;14.43;;;7.13;;
68858;SDS011;55864;49.238;8.092;2022-07-22T07:12:23;14.88;;;7.60;;
68858;SDS011;55864;49.238;8.092;2022-07-22T07:14:47;15.07;;;7.20;;
68858;SDS011;55864;49.238;8.092;2022-07-22T07:16:47;13.55;;;7.28;;
68858;SDS011;55864;49.238;8.092;2022-07-22T07:18:49;12.60;;;7.00;;
68858;SDS011;55864;49.238;8.092;2022-07-22T07:20:50;12.00;;;6.85;;
68858;SDS011;55864;49.238;8.092;2022-07-22T07:22:51;13.80;;;7.22;;
68858;SDS011;55864;49.238;8.092;2022-07-22T07:24:52;12.63;;;7.50;;
68858;SDS011;55864;49.238;8.092;2022-07-22T07:26:53;11.95;;;6.80;;
68858;SDS011;55864;49.238;8.092;2022-07-22T07:28:54;12.32;;;7.28;;
68858;SDS011;55864;49.238;8.092;2022-07-22T07:31:04;13.80;;;7.45;;
68858;SDS011;55864;49.238;8.092;2022-07-22T07:33:04;13.40;;;7.25;;
68858;SDS011;55864;49.238;8.092;2022-07-22T07:35:07;16.42;;;7.60;;
68858;SDS011;55864;49.238;8.092;2022-07-22T07:37:08;12.73;;;7.18;;
68858;SDS011;55864;49.238;8.092;2022-07-22T07:39:09;12.20;;;7.10;;
68858;SDS011;55864;49.238;8.092;2022-07-22T07:41:09;13.70;;;7.40;;
68858;SDS011;55864;49.238;8.092;2022-07-22T07:43:12;15.57;;;7.47;;
68858;SDS011;55864;49.238;8.092;2022-07-22T07:45:13;12.88;;;7.30;;
68858;SDS011;55864;49.238;8.092;2022-07-22T07:47:13;13.75;;;7.07;;
68858;SDS011;55864;49.238;8.092;2022-07-22T07:49:14;11.90;;;7.40;;
68858;SDS011;55864;49.238;8.092;2022-07-22T07:51:16;12.93;;;7.10;;
68858;SDS011;55864;49.238;8.092;2022-07-22T07:53:18;15.27;;;7.47;;
68858;SDS011;55864;49.238;8.092;2022-07-22T07:55:18;13.50;;;7.25;;
68858;SDS011;55864;49.238;8.092;2022-07-22T07:57:20;13.13;;;7.25;;
68858;SDS011;55864;49.238;8.092;2022-07-22T07:59:21;15.80;;;7.60;;
68858;SDS011;55864;49.238;8.092;2022-07-22T08:01:22;12.00;;;7.53;;
68858;SDS011;55864;49.238;8.092;2022-07-22T08:03:22;12.30;;;7.75;;
68858;SDS011;55864;49.238;8.092;2022-07-22T08:05:23;12.57;;;7.25;;
68858;SDS011;55864;49.238;8.092;2022-07-22T08:07:26;16.13;;;8.07;;
68858;SDS011;55864;49.238;8.092;2022-07-22T08:09:27;12.60;;;7.18;;
68858;SDS011;55864;49.238;8.092;2022-07-22T08:11:28;14.50;;;7.93;;
68858;SDS011;55864;49.238;8.092;2022-07-22T08:13:47;14.02;;;8.05;;
68858;SDS011;55864;49.238;8.092;2022-07-22T08:16:08;13.07;;;7.50;;
68858;SDS011;55864;49.238;8.092;2022-07-22T08:18:08;13.00;;;7.35;;
68858;SDS011;55864;49.238;8.092;2022-07-22T08:20:09;12.88;;;7.80;;
68858;SDS011;55864;49.238;8.092;2022-07-22T08:22:10;13.88;;;7.88;;
68858;SDS011;55864;49.238;8.092;2022-07-22T08:24:12;16.45;;;7.97;;
68858;SDS011;55864;49.238;8.092;2022-07-22T08:26:12;15.38;;;8.05;;
68858;SDS011;55864;49.238;8.092;2022-07-22T08:28:13;13.65;;;7.88;;
68858;SDS011;55864;49.238;8.092;2022-07-22T08:30:14;14.98;;;8.00;;
68858;SDS011;55864;49.238;8.092;2022-07-22T08:32:16;13.32;;;7.47;;
68858;SDS011;55864;49.238;8.092;2022-07-22T08:34:19;12.07;;;7.30;;
68858;SDS011;55864;49.238;8.092;2022-07-22T08:36:20;12.13;;;7.47;;
68858;SDS011;55864;49.238;8.092;2022-07-22T08:38:21;14.48;;;8.13;;
68858;SDS011;55864;49.238;8.092;2022-07-22T08:40:23;23.45;;;8.23;;
68858;SDS011;55864;49.238;8.092;2022-07-22T08:42:25;19.75;;;8.40;;
68858;SDS011;55864;49.238;8.092;2022-07-22T08:44:28;13.35;;;6.95;;
68858;SDS011;55864;49.238;8.092;2022-07-22T08:46:30;14.43;;;8.45;;
68858;SDS011;55864;49.238;8.092;2022-07-22T08:48:57;13.55;;;8.20;;
68858;SDS011;55864;49.238;8.092;2022-07-22T08:51:18;11.43;;;6.97;;
68858;SDS011;55864;49.238;8.092;2022-07-22T08:53:49;13.68;;;7.60;;
68858;SDS011;55864;49.238;8.092;2022-07-22T08:55:52;14.63;;;8.48;;
68858;SDS011;55864;49.238;8.092;2022-07-22T08:57:53;14.03;;;7.47;;
68858;SDS011;55864;49.238;8.092;2022-07-22T08:59:54;13.23;;;7.28;;
68858;SDS011;55864;49.238;8.092;2022-07-22T09:02:02;12.65;;;6.90;;
68858;SDS011;55864;49.238;8.092;2022-07-22T09:04:14;14.10;;;7.13;;
68858;SDS011;55864;49.238;8.092;2022-07-22T09:06:15;11.60;;;7.65;;
68858;SDS011;55864;49.238;8.092;2022-07-22T09:08:17;14.95;;;7.50;;
68858;SDS011;55864;49.238;8.092;2022-07-22T09:10:32;14.07;;;8.05;;
68858;SDS011;55864;49.238;8.092;2022-07-22T09:13:02;13.63;;;6.63;;
68858;SDS011;55864;49.238;8.092;2022-07-22T09:15:24;12.98;;;6.95;;
68858;SDS011;55864;49.238;8.092;2022-07-22T09:17:46;11.98;;;7.40;;
68858;SDS011;55864;49.238;8.092;2022-07-22T09:20:14;12.52;;;7.45;;
68858;SDS011;55864;49.238;8.092;2022-07-22T09:22:37;10.98;;;6.85;;
68858;SDS011;55864;49.238;8.092;2022-07-22T09:25:07;12.13;;;7.05;;
68858;SDS011;55864;49.238;8.092;2022-07-22T09:27:37;11.07;;;7.28;;
68858;SDS011;55864;49.238;8.092;2022-07-22T09:29:55;12.60;;;7.38;;
68858;SDS011;55864;49.238;8.092;2022-07-22T09:31:58;12.48;;;7.75;;
68858;SDS011;55864;49.238;8.092;2022-07-22T09:34:14;12.63;;;7.57;;
68858;SDS011;55864;49.238;8.092;2022-07-22T09:36:26;13.52;;;7.45;;
68858;SDS011;55864;49.238;8.092;2022-07-22T09:38:29;10.95;;;7.13;;
68858;SDS011;55864;49.238;8.092;2022-07-22T09:40:32;11.85;;;7.10;;
68858;SDS011;55864;49.238;8.092;2022-07-22T09:42:43;13.05;;;7.00;;
68858;SDS011;55864;49.238;8.092;2022-07-22T09:44:45;12.88;;;7.22;;
68858;SDS011;55864;49.238;8.092;2022-07-22T09:47:00;13.00;;;7.20;;
68858;SDS011;55864;49.238;8.092;2022-07-22T09:49:31;11.75;;;6.60;;
68858;SDS011;55864;49.238;8.092;2022-07-22T09:51:51;12.60;;;7.60;;
68858;SDS011;55864;49.238;8.092;2022-07-22T09:54:24;10.60;;;6.63;;
68858;SDS011;55864;49.238;8.092;2022-07-22T09:56:26;13.80;;;7.40;;
68858;SDS011;55864;49.238;8.092;2022-07-22T09:58:28;11.07;;;7.15;;
68858;SDS011;55864;49.238;8.092;2022-07-22T10:00:29;13.23;;;7.05;;
68858;SDS011;55864;49.238;8.092;2022-07-22T10:02:33;10.82;;;6.85;;
68858;SDS011;55864;49.238;8.092;2022-07-22T10:04:36;12.77;;;7.68;;
68858;SDS011;55864;49.238;8.092;2022-07-22T10:06:43;13.35;;;7.32;;
68858;SDS011;55864;49.238;8.092;2022-07-22T10:08:50;13.15;;;6.93;;
68858;SDS011;55864;49.238;8.092;2022-07-22T10:10:51;12.70;;;8.15;;
68858;SDS011;55864;49.238;8.092;2022-07-22T10:12:53;10.57;;;6.68;;
68858;SDS011;55864;49.238;8.092;2022-07-22T10:14:56;11.93;;;6.97;;
68858;SDS011;55864;49.238;8.092;2022-07-22T10:16:58;14.15;;;7.95;;
68858;SDS011;55864;49.238;8.092;2022-07-22T10:19:01;12.80;;;7.68;;
68858;SDS011;55864;49.238;8.092;2022-07-22T10:21:02;12.05;;;7.55;;
68858;SDS011;55864;49.238;8.092;2022-07-22T10:23:04;11.55;;;7.10;;
68858;SDS011;55864;49.238;8.092;2022-07-22T10:25:06;13.13;;;7.60;;
68858;SDS011;55864;49.238;8.092;2022-07-22T10:27:08;12.93;;;6.82;;
68858;SDS011;55864;49.238;8.092;2022-07-22T10:29:23;12.40;;;7.07;;
68858;SDS011;55864;49.238;8.092;2022-07-22T10:31:24;11.38;;;7.38;;
68858;SDS011;55864;49.238;8.092;2022-07-22T10:33:29;11.18;;;6.97;;
68858;SDS011;55864;49.238;8.092;2022-07-22T10:35:32;16.40;;;7.28;;
68858;SDS011;55864;49.238;8.092;2022-07-22T10:37:38;11.27;;;6.78;;
68858;SDS011;55864;49.238;8.092;2022-07-22T10:39:49;12.43;;;7.10;;
68858;SDS011;55864;49.238;8.092;2022-07-22T10:42:10;10.85;;;6.60;;
68858;SDS011;55864;49.238;8.092;2022-07-22T10:44:11;9.20;;;6.30;;
68858;SDS011;55864;49.238;8.092;2022-07-22T10:46:12;11.10;;;6.97;;
68858;SDS011;55864;49.238;8.092;2022-07-22T10:48:14;10.07;;;6.72;;
68858;SDS011;55864;49.238;8.092;2022-07-22T10:52:45;11.40;;;6.97;;
68858;SDS011;55864;49.238;8.092;2022-07-22T10:57:28;11.75;;;7.05;;
68858;SDS011;55864;49.238;8.092;2022-07-22T10:59:30;11.50;;;6.70;;
68858;SDS011;55864;49.238;8.092;2022-07-22T11:01:31;12.40;;;8.05;;
68858;SDS011;55864;49.238;8.092;2022-07-22T11:03:32;11.02;;;6.97;;
68858;SDS011;55864;49.238;8.092;2022-07-22T11:05:34;12.60;;;6.53;;
68858;SDS011;55864;49.238;8.092;2022-07-22T11:07:41;11.13;;;7.28;;
68858;SDS011;55864;49.238;8.092;2022-07-22T11:09:42;13.38;;;6.85;;
68858;SDS011;55864;49.238;8.092;2022-07-22T11:11:44;10.63;;;6.80;;
68858;SDS011;55864;49.238;8.092;2022-07-22T11:13:46;13.52;;;6.82;;
68858;SDS011;55864;49.238;8.092;2022-07-22T11:15:46;11.93;;;7.32;;
68858;SDS011;55864;49.238;8.092;2022-07-22T11:17:47;12.40;;;7.07;;
68858;SDS011;55864;49.238;8.092;2022-07-22T11:19:50;11.68;;;7.10;;
68858;SDS011;55864;49.238;8.092;2022-07-22T11:21:51;14.30;;;7.85;;
68858;SDS011;55864;49.238;8.092;2022-07-22T11:23:56;12.98;;;7.10;;
68858;SDS011;55864;49.238;8.092;2022-07-22T11:25:58;11.23;;;7.00;;
68858;SDS011;55864;49.238;8.092;2022-07-22T11:28:00;11.27;;;6.10;;
68858;SDS011;55864;49.238;8.092;2022-07-22T11:30:00;10.75;;;7.05;;
68858;SDS011;55864;49.238;8.092;2022-07-22T11:32:02;10.65;;;6.82;;
68858;SDS011;55864;49.238;8.092;2022-07-22T11:34:04;11.85;;;7.03;;
68858;SDS011;55864;49.238;8.092;2022-07-22T11:36:07;12.98;;;6.85;;
68858;SDS011;55864;49.238;8.092;2022-07-22T11:38:09;11.35;;;7.28;;
68858;SDS011;55864;49.238;8.092;2022-07-22T11:40:11;9.93;;;6.85;;
68858;SDS011;55864;49.238;8.092;2022-07-22T11:42:12;11.90;;;7.22;;
68858;SDS011;55864;49.238;8.092;2022-07-22T11:44:16;10.77;;;7.05;;
68858;SDS011;55864;49.238;8.092;2022-07-22T11:46:18;10.55;;;6.45;;
68858;SDS011;55864;49.238;8.092;2022-07-22T11:48:19;12.02;;;7.20;;
68858;SDS011;55864;49.238;8.092;2022-07-22T11:50:28;10.55;;;6.07;;
68858;SDS011;55864;49.238;8.092;2022-07-22T11:52:29;9.82;;;6.63;;
68858;SDS011;55864;49.238;8.092;2022-07-22T11:54:30;11.30;;;7.13;;
68858;SDS011;55864;49.238;8.092;2022-07-22T11:56:33;11.65;;;6.53;;
68858;SDS011;55864;49.238;8.092;2022-07-22T11:58:38;11.52;;;6.70;;
68858;SDS011;55864;49.238;8.092;2022-07-22T12:00:40;10.00;;;6.60;;
68858;SDS011;55864;49.238;8.092;2022-07-22T12:02:41;11.85;;;6.57;;
68858;SDS011;55864;49.238;8.092;2022-07-22T12:04:42;12.10;;;6.22;;
68858;SDS011;55864;49.238;8.092;2022-07-22T12:06:46;9.27;;;6.68;;
68858;SDS011;55864;49.238;8.092;2022-07-22T12:08:48;10.00;;;6.70;;
68858;SDS011;55864;49.238;8.092;2022-07-22T12:10:50;9.85;;;6.35;;
68858;SDS011;55864;49.238;8.092;2022-07-22T12:12:52;10.70;;;6.38;;
68858;SDS011;55864;49.238;8.092;2022-07-22T12:14:53;10.23;;;6.90;;
68858;SDS011;55864;49.238;8.092;2022-07-22T12:16:58;13.30;;;7.05;;
68858;SDS011;55864;49.238;8.092;2022-07-22T12:19:00;11.82;;;6.95;;
68858;SDS011;55864;49.238;8.092;2022-07-22T12:21:05;11.57;;;6.97;;
68858;SDS011;55864;49.238;8.092;2022-07-22T12:23:06;13.38;;;7.55;;
68858;SDS011;55864;49.238;8.092;2022-07-22T12:25:07;12.35;;;6.80;;
68858;SDS011;55864;49.238;8.092;2022-07-22T12:27:08;11.48;;;6.60;;
68858;SDS011;55864;49.238;8.092;2022-07-22T12:31:17;11.63;;;6.15;;